sensor_id;sensor_type;location;lat;lon;timestamp;P1;durP1;ratioP1;P2;durP2;ratioP2
14205;SDS011;7186;48.800;9.216;2023-02-08T00:01:35;15.67;;;8.83;;
14205;SDS011;7186;48.800;9.216;2023-02-08T00:04:03;13.87;;;8.40;;
14205;SDS011;7186;48.800;9.216;2023-02-08T00:06:28;17.40;;;9.17;;
14205;SDS011;7186;48.800;9.216;2023-02-08T00:09:03;15.20;;;8.73;;
14205;SDS011;7186;48.800;9.216;2023-02-08T00:11:28;14.73;;;8.30;;
14205;SDS011;7186;48.800;9.216;2023-02-08T00:13:53;13.40;;;8.53;;
14205;SDS011;7186;48.800;9.216;2023-02-08T00:19:04;13.53;;;7.57;;
14205;SDS011;7186;48.800;9.216;2023-02-08T00:21:38;14.33;;;8.70;;
14205;SDS011;7186;48.800;9.216;2023-02-08T00:24:04;14.77;;;8.43;;
14205;SDS011;7186;48.800;9.216;2023-02-08T00:26:29;15.60;;;8.53;;
14205;SDS011;7186;48.800;9.216;2023-02-08T00:28:54;13.53;;;8.17;;
14205;SDS011;7186;48.800;9.216;2023-02-08T00:31:23;12.53;;;7.80;;
14205;SDS011;7186;48.800;9.216;2023-02-08T00:34:06;13.90;;;8.17;;
14205;SDS011;7186;48.800;9.216;2023-02-08T00:36:32;15.10;;;8.00;;
14205;SDS011;7186;48.800;9.216;2023-02-08T00:38:57;12.40;;;7.67;;
14205;SDS011;7186;48.800;9.216;2023-02-08T00:41:23;13.80;;;8.13;;
14205;SDS011;7186;48.800;9.216;2023-02-08T00:43:51;14.63;;;8.93;;
14205;SDS011;7186;48.800;9.216;2023-02-08T00:46:49;11.90;;;7.67;;
14205;SDS011;7186;48.800;9.216;2023-02-08T00:49:14;14.27;;;8.27;;
14205;SDS011;7186;48.800;9.216;2023-02-08T00:51:39;16.60;;;8.83;;
14205;SDS011;7186;48.800;9.216;2023-02-08T00:54:05;12.53;;;8.07;;
14205;SDS011;7186;48.800;9.216;2023-02-08T00:56:30;12.80;;;7.67;;
14205;SDS011;7186;48.800;9.216;2023-02-08T00:58:56;13.00;;;7.73;;
14205;SDS011;7186;48.800;9.216;2023-02-08T01:01:24;16.90;;;8.43;;
14205;SDS011;7186;48.800;9.216;2023-02-08T01:03:50;14.87;;;9.00;;
14205;SDS011;7186;48.800;9.216;2023-02-08T01:06:20;19.43;;;9.50;;
14205;SDS011;7186;48.800;9.216;2023-02-08T01:08:52;14.80;;;8.73;;
14205;SDS011;7186;48.800;9.216;2023-02-08T01:11:19;15.03;;;9.37;;
14205;SDS011;7186;48.800;9.216;2023-02-08T01:13:47;16.10;;;9.67;;
14205;SDS011;7186;48.800;9.216;2023-02-08T01:16:16;13.67;;;8.57;;
14205;SDS011;7186;48.800;9.216;2023-02-08T01:18:42;15.73;;;9.20;;
14205;SDS011;7186;48.800;9.216;2023-02-08T01:21:09;17.00;;;8.27;;
14205;SDS011;7186;48.800;9.216;2023-02-08T01:23:35;13.47;;;8.63;;
14205;SDS011;7186;48.800;9.216;2023-02-08T01:26:01;14.10;;;7.80;;
14205;SDS011;7186;48.800;9.216;2023-02-08T01:28:26;17.60;;;9.37;;
14205;SDS011;7186;48.800;9.216;2023-02-08T01:30:54;15.83;;;9.00;;
14205;SDS011;7186;48.800;9.216;2023-02-08T01:33:20;15.43;;;8.77;;
14205;SDS011;7186;48.800;9.216;2023-02-08T01:35:48;17.83;;;8.40;;
14205;SDS011;7186;48.800;9.216;2023-02-08T01:38:13;13.03;;;8.17;;
14205;SDS011;7186;48.800;9.216;2023-02-08T01:40:41;13.63;;;8.63;;
14205;SDS011;7186;48.800;9.216;2023-02-08T01:43:26;14.40;;;8.57;;
14205;SDS011;7186;48.800;9.216;2023-02-08T01:45:52;14.27;;;8.47;;
14205;SDS011;7186;48.800;9.216;2023-02-08T01:48:19;12.93;;;8.30;;
14205;SDS011;7186;48.800;9.216;2023-02-08T01:53:16;13.93;;;8.63;;
14205;SDS011;7186;48.800;9.216;2023-02-08T01:55:44;12.03;;;8.23;;
14205;SDS011;7186;48.800;9.216;2023-02-08T01:58:11;14.40;;;8.37;;
14205;SDS011;7186;48.800;9.216;2023-02-08T02:00:37;13.50;;;8.60;;
14205;SDS011;7186;48.800;9.216;2023-02-08T02:03:02;13.77;;;8.37;;
14205;SDS011;7186;48.800;9.216;2023-02-08T02:05:31;13.93;;;8.67;;
14205;SDS011;7186;48.800;9.216;2023-02-08T02:07:57;11.60;;;7.97;;
14205;SDS011;7186;48.800;9.216;2023-02-08T02:10:31;15.80;;;8.83;;
14205;SDS011;7186;48.800;9.216;2023-02-08T02:12:59;15.13;;;9.33;;
14205;SDS011;7186;48.800;9.216;2023-02-08T02:15:26;13.37;;;8.63;;
14205;SDS011;7186;48.800;9.216;2023-02-08T02:17:51;10.53;;;7.30;;
14205;SDS011;7186;48.800;9.216;2023-02-08T02:25:18;14.83;;;8.50;;
14205;SDS011;7186;48.800;9.216;2023-02-08T02:33:40;14.73;;;8.73;;
14205;SDS011;7186;48.800;9.216;2023-02-08T02:43:45;14.77;;;9.17;;
14205;SDS011;7186;48.800;9.216;2023-02-08T02:52:07;15.20;;;9.43;;
14205;SDS011;7186;48.800;9.216;2023-02-08T02:54:18;15.93;;;9.43;;
14205;SDS011;7186;48.800;9.216;2023-02-08T02:56:46;18.40;;;10.23;;
14205;SDS011;7186;48.800;9.216;2023-02-08T02:59:16;14.53;;;9.17;;
14205;SDS011;7186;48.800;9.216;2023-02-08T03:01:45;16.00;;;9.90;;
14205;SDS011;7186;48.800;9.216;2023-02-08T03:04:18;16.67;;;8.77;;
14205;SDS011;7186;48.800;9.216;2023-02-08T03:22:31;15.87;;;9.93;;
14205;SDS011;7186;48.800;9.216;2023-02-08T03:25:09;19.53;;;10.70;;
14205;SDS011;7186;48.800;9.216;2023-02-08T03:27:40;18.73;;;10.40;;
14205;SDS011;7186;48.800;9.216;2023-02-08T03:30:13;16.17;;;10.30;;
14205;SDS011;7186;48.800;9.216;2023-02-08T03:32:57;18.87;;;9.87;;
14205;SDS011;7186;48.800;9.216;2023-02-08T03:38:02;16.73;;;10.20;;
14205;SDS011;7186;48.800;9.216;2023-02-08T03:40:34;16.37;;;10.10;;
14205;SDS011;7186;48.800;9.216;2023-02-08T03:43:08;16.67;;;10.33;;
14205;SDS011;7186;48.800;9.216;2023-02-08T03:45:36;15.73;;;9.77;;
14205;SDS011;7186;48.800;9.216;2023-02-08T03:48:03;17.57;;;10.67;;
14205;SDS011;7186;48.800;9.216;2023-02-08T03:50:29;19.57;;;10.60;;
14205;SDS011;7186;48.800;9.216;2023-02-08T03:52:59;16.97;;;10.37;;
14205;SDS011;7186;48.800;9.216;2023-02-08T03:55:25;16.87;;;9.73;;
14205;SDS011;7186;48.800;9.216;2023-02-08T04:00:36;16.40;;;9.53;;
14205;SDS011;7186;48.800;9.216;2023-02-08T04:03:16;20.67;;;10.53;;
14205;SDS011;7186;48.800;9.216;2023-02-08T04:05:46;19.53;;;11.10;;
14205;SDS011;7186;48.800;9.216;2023-02-08T04:08:12;18.77;;;10.10;;
14205;SDS011;7186;48.800;9.216;2023-02-08T04:10:40;18.97;;;9.83;;
14205;SDS011;7186;48.800;9.216;2023-02-08T04:13:06;17.47;;;10.50;;
14205;SDS011;7186;48.800;9.216;2023-02-08T04:15:31;17.00;;;9.50;;
14205;SDS011;7186;48.800;9.216;2023-02-08T04:17:57;19.90;;;11.13;;
14205;SDS011;7186;48.800;9.216;2023-02-08T04:20:22;16.67;;;9.77;;
14205;SDS011;7186;48.800;9.216;2023-02-08T04:22:47;18.17;;;10.57;;
14205;SDS011;7186;48.800;9.216;2023-02-08T04:25:13;18.80;;;10.63;;
14205;SDS011;7186;48.800;9.216;2023-02-08T04:27:41;17.73;;;11.23;;
14205;SDS011;7186;48.800;9.216;2023-02-08T04:30:06;20.20;;;11.13;;
14205;SDS011;7186;48.800;9.216;2023-02-08T04:32:32;19.83;;;10.57;;
14205;SDS011;7186;48.800;9.216;2023-02-08T04:34:57;19.27;;;11.30;;
14205;SDS011;7186;48.800;9.216;2023-02-08T04:37:23;15.60;;;10.30;;
14205;SDS011;7186;48.800;9.216;2023-02-08T04:39:48;17.37;;;10.97;;
14205;SDS011;7186;48.800;9.216;2023-02-08T04:42:13;16.63;;;10.73;;
14205;SDS011;7186;48.800;9.216;2023-02-08T04:44:39;16.57;;;10.60;;
14205;SDS011;7186;48.800;9.216;2023-02-08T04:47:04;18.93;;;10.77;;
14205;SDS011;7186;48.800;9.216;2023-02-08T04:49:29;16.97;;;9.60;;
14205;SDS011;7186;48.800;9.216;2023-02-08T04:51:55;17.33;;;10.57;;
14205;SDS011;7186;48.800;9.216;2023-02-08T04:54:20;20.37;;;9.43;;
14205;SDS011;7186;48.800;9.216;2023-02-08T04:56:46;18.57;;;10.17;;
14205;SDS011;7186;48.800;9.216;2023-02-08T04:59:14;22.07;;;10.83;;
14205;SDS011;7186;48.800;9.216;2023-02-08T05:01:49;18.93;;;10.80;;
14205;SDS011;7186;48.800;9.216;2023-02-08T05:07:22;19.17;;;10.27;;
14205;SDS011;7186;48.800;9.216;2023-02-08T05:09:47;15.40;;;9.87;;
14205;SDS011;7186;48.800;9.216;2023-02-08T05:12:13;14.77;;;9.83;;
14205;SDS011;7186;48.800;9.216;2023-02-08T05:14:38;22.97;;;10.87;;
14205;SDS011;7186;48.800;9.216;2023-02-08T05:17:03;17.13;;;9.80;;
14205;SDS011;7186;48.800;9.216;2023-02-08T05:19:29;17.60;;;10.43;;
14205;SDS011;7186;48.800;9.216;2023-02-08T05:21:54;20.00;;;10.67;;
14205;SDS011;7186;48.800;9.216;2023-02-08T05:24:19;18.60;;;9.93;;
14205;SDS011;7186;48.800;9.216;2023-02-08T05:26:45;15.33;;;9.87;;
14205;SDS011;7186;48.800;9.216;2023-02-08T05:29:10;16.93;;;10.17;;
14205;SDS011;7186;48.800;9.216;2023-02-08T05:31:35;20.57;;;11.07;;
14205;SDS011;7186;48.800;9.216;2023-02-08T05:34:01;16.70;;;9.90;;
14205;SDS011;7186;48.800;9.216;2023-02-08T05:36:26;19.87;;;10.40;;
14205;SDS011;7186;48.800;9.216;2023-02-08T05:38:52;17.10;;;10.43;;
14205;SDS011;7186;48.800;9.216;2023-02-08T05:41:17;19.87;;;10.83;;
14205;SDS011;7186;48.800;9.216;2023-02-08T05:43:46;16.93;;;10.50;;
14205;SDS011;7186;48.800;9.216;2023-02-08T05:46:12;19.53;;;10.13;;
14205;SDS011;7186;48.800;9.216;2023-02-08T05:48:37;22.03;;;11.07;;
14205;SDS011;7186;48.800;9.216;2023-02-08T05:51:03;22.63;;;10.87;;
14205;SDS011;7186;48.800;9.216;2023-02-08T05:53:31;14.97;;;9.77;;
14205;SDS011;7186;48.800;9.216;2023-02-08T05:55:57;16.50;;;10.10;;
14205;SDS011;7186;48.800;9.216;2023-02-08T05:58:22;20.33;;;10.90;;
14205;SDS011;7186;48.800;9.216;2023-02-08T06:00:48;16.47;;;10.17;;
14205;SDS011;7186;48.800;9.216;2023-02-08T06:03:21;19.43;;;9.73;;
14205;SDS011;7186;48.800;9.216;2023-02-08T06:05:49;18.57;;;9.97;;
14205;SDS011;7186;48.800;9.216;2023-02-08T06:08:17;18.73;;;11.17;;
14205;SDS011;7186;48.800;9.216;2023-02-08T06:10:43;20.53;;;10.50;;
14205;SDS011;7186;48.800;9.216;2023-02-08T06:13:09;22.20;;;10.80;;
14205;SDS011;7186;48.800;9.216;2023-02-08T06:15:35;20.83;;;10.93;;
14205;SDS011;7186;48.800;9.216;2023-02-08T06:18:00;14.77;;;10.07;;
14205;SDS011;7186;48.800;9.216;2023-02-08T06:20:26;19.50;;;11.17;;
14205;SDS011;7186;48.800;9.216;2023-02-08T06:22:51;19.23;;;11.03;;
14205;SDS011;7186;48.800;9.216;2023-02-08T06:25:16;16.60;;;10.17;;
14205;SDS011;7186;48.800;9.216;2023-02-08T06:27:41;18.60;;;10.23;;
14205;SDS011;7186;48.800;9.216;2023-02-08T06:30:07;20.73;;;10.33;;
14205;SDS011;7186;48.800;9.216;2023-02-08T06:32:53;18.03;;;9.67;;
14205;SDS011;7186;48.800;9.216;2023-02-08T06:35:18;18.57;;;10.23;;
14205;SDS011;7186;48.800;9.216;2023-02-08T06:37:43;17.00;;;10.70;;
14205;SDS011;7186;48.800;9.216;2023-02-08T06:40:10;18.30;;;10.60;;
14205;SDS011;7186;48.800;9.216;2023-02-08T06:42:35;18.50;;;11.03;;
14205;SDS011;7186;48.800;9.216;2023-02-08T06:45:00;20.40;;;10.23;;
14205;SDS011;7186;48.800;9.216;2023-02-08T06:47:26;18.40;;;9.53;;
14205;SDS011;7186;48.800;9.216;2023-02-08T06:49:52;22.70;;;11.97;;
14205;SDS011;7186;48.800;9.216;2023-02-08T06:52:17;18.57;;;10.77;;
14205;SDS011;7186;48.800;9.216;2023-02-08T06:54:43;22.93;;;10.47;;
14205;SDS011;7186;48.800;9.216;2023-02-08T06:57:09;18.40;;;10.70;;
14205;SDS011;7186;48.800;9.216;2023-02-08T06:59:37;17.80;;;10.30;;
14205;SDS011;7186;48.800;9.216;2023-02-08T07:02:03;20.07;;;10.07;;
14205;SDS011;7186;48.800;9.216;2023-02-08T07:04:37;18.80;;;11.40;;
14205;SDS011;7186;48.800;9.216;2023-02-08T07:07:14;21.63;;;11.03;;
14205;SDS011;7186;48.800;9.216;2023-02-08T07:09:39;16.97;;;10.70;;
14205;SDS011;7186;48.800;9.216;2023-02-08T07:12:05;19.80;;;10.90;;
14205;SDS011;7186;48.800;9.216;2023-02-08T07:14:41;23.03;;;11.23;;
14205;SDS011;7186;48.800;9.216;2023-02-08T07:17:06;19.30;;;11.17;;
14205;SDS011;7186;48.800;9.216;2023-02-08T07:19:32;25.27;;;10.20;;
14205;SDS011;7186;48.800;9.216;2023-02-08T07:21:57;20.77;;;10.07;;
14205;SDS011;7186;48.800;9.216;2023-02-08T07:24:32;17.10;;;10.50;;
14205;SDS011;7186;48.800;9.216;2023-02-08T07:26:57;21.87;;;10.50;;
14205;SDS011;7186;48.800;9.216;2023-02-08T07:29:22;22.50;;;10.17;;
14205;SDS011;7186;48.800;9.216;2023-02-08T07:31:48;25.03;;;11.07;;
14205;SDS011;7186;48.800;9.216;2023-02-08T07:34:13;31.83;;;11.23;;
14205;SDS011;7186;48.800;9.216;2023-02-08T07:37:02;16.37;;;9.93;;
14205;SDS011;7186;48.800;9.216;2023-02-08T07:39:27;15.27;;;9.67;;
14205;SDS011;7186;48.800;9.216;2023-02-08T07:41:55;21.93;;;11.23;;
14205;SDS011;7186;48.800;9.216;2023-02-08T07:44:20;13.47;;;10.10;;
14205;SDS011;7186;48.800;9.216;2023-02-08T07:46:45;18.97;;;10.43;;
14205;SDS011;7186;48.800;9.216;2023-02-08T07:49:11;17.87;;;10.23;;
14205;SDS011;7186;48.800;9.216;2023-02-08T07:51:36;22.90;;;11.10;;
14205;SDS011;7186;48.800;9.216;2023-02-08T07:54:02;20.63;;;10.63;;
14205;SDS011;7186;48.800;9.216;2023-02-08T07:56:27;22.27;;;11.07;;
14205;SDS011;7186;48.800;9.216;2023-02-08T07:58:53;18.13;;;10.80;;
14205;SDS011;7186;48.800;9.216;2023-02-08T08:01:18;20.00;;;10.67;;
14205;SDS011;7186;48.800;9.216;2023-02-08T08:03:43;16.70;;;9.80;;
14205;SDS011;7186;48.800;9.216;2023-02-08T08:06:08;19.80;;;11.13;;
14205;SDS011;7186;48.800;9.216;2023-02-08T08:08:36;18.17;;;10.27;;
14205;SDS011;7186;48.800;9.216;2023-02-08T08:11:01;19.60;;;10.37;;
14205;SDS011;7186;48.800;9.216;2023-02-08T08:13:27;19.10;;;9.80;;
14205;SDS011;7186;48.800;9.216;2023-02-08T08:15:52;22.50;;;10.83;;
14205;SDS011;7186;48.800;9.216;2023-02-08T08:18:17;19.73;;;10.23;;
14205;SDS011;7186;48.800;9.216;2023-02-08T08:20:45;21.23;;;9.97;;
14205;SDS011;7186;48.800;9.216;2023-02-08T08:23:10;18.20;;;10.53;;
14205;SDS011;7186;48.800;9.216;2023-02-08T08:25:36;19.23;;;10.30;;
14205;SDS011;7186;48.800;9.216;2023-02-08T08:28:02;17.83;;;10.17;;
14205;SDS011;7186;48.800;9.216;2023-02-08T08:30:27;21.77;;;11.43;;
14205;SDS011;7186;48.800;9.216;2023-02-08T08:32:52;18.60;;;9.63;;
14205;SDS011;7186;48.800;9.216;2023-02-08T08:35:18;16.33;;;8.87;;
14205;SDS011;7186;48.800;9.216;2023-02-08T08:37:43;26.97;;;11.93;;
14205;SDS011;7186;48.800;9.216;2023-02-08T08:40:09;14.23;;;8.73;;
14205;SDS011;7186;48.800;9.216;2023-02-08T08:42:34;13.50;;;8.37;;
14205;SDS011;7186;48.800;9.216;2023-02-08T08:45:00;18.73;;;10.10;;
14205;SDS011;7186;48.800;9.216;2023-02-08T08:47:25;16.10;;;9.20;;
14205;SDS011;7186;48.800;9.216;2023-02-08T08:49:51;17.17;;;9.73;;
14205;SDS011;7186;48.800;9.216;2023-02-08T08:52:16;15.17;;;9.13;;
14205;SDS011;7186;48.800;9.216;2023-02-08T08:54:41;17.83;;;9.03;;
14205;SDS011;7186;48.800;9.216;2023-02-08T08:57:07;16.07;;;8.77;;
14205;SDS011;7186;48.800;9.216;2023-02-08T08:59:32;17.53;;;9.30;;
14205;SDS011;7186;48.800;9.216;2023-02-08T09:01:58;16.17;;;8.67;;
14205;SDS011;7186;48.800;9.216;2023-02-08T09:04:23;18.37;;;9.60;;
14205;SDS011;7186;48.800;9.216;2023-02-08T09:06:50;22.33;;;10.00;;
14205;SDS011;7186;48.800;9.216;2023-02-08T09:09:16;22.53;;;12.80;;
14205;SDS011;7186;48.800;9.216;2023-02-08T09:11:41;16.67;;;9.80;;
14205;SDS011;7186;48.800;9.216;2023-02-08T09:14:06;17.47;;;9.87;;
14205;SDS011;7186;48.800;9.216;2023-02-08T09:16:31;19.40;;;10.20;;
14205;SDS011;7186;48.800;9.216;2023-02-08T09:19:03;18.07;;;9.17;;
14205;SDS011;7186;48.800;9.216;2023-02-08T09:21:29;19.37;;;10.27;;
14205;SDS011;7186;48.800;9.216;2023-02-08T09:23:54;18.77;;;10.53;;
14205;SDS011;7186;48.800;9.216;2023-02-08T09:26:19;17.70;;;9.40;;
14205;SDS011;7186;48.800;9.216;2023-02-08T09:28:45;16.93;;;10.03;;
14205;SDS011;7186;48.800;9.216;2023-02-08T09:31:21;19.23;;;9.63;;
14205;SDS011;7186;48.800;9.216;2023-02-08T09:33:47;16.13;;;9.43;;
14205;SDS011;7186;48.800;9.216;2023-02-08T09:36:13;17.90;;;9.67;;
14205;SDS011;7186;48.800;9.216;2023-02-08T09:38:39;16.30;;;9.70;;
14205;SDS011;7186;48.800;9.216;2023-02-08T09:46:19;18.97;;;9.90;;
14205;SDS011;7186;48.800;9.216;2023-02-08T09:48:45;15.83;;;9.73;;
14205;SDS011;7186;48.800;9.216;2023-02-08T09:51:23;18.80;;;9.47;;
14205;SDS011;7186;48.800;9.216;2023-02-08T09:53:52;18.90;;;9.80;;
14205;SDS011;7186;48.800;9.216;2023-02-08T09:56:20;16.47;;;10.10;;
14205;SDS011;7186;48.800;9.216;2023-02-08T09:58:49;19.03;;;10.33;;
14205;SDS011;7186;48.800;9.216;2023-02-08T10:01:17;15.80;;;9.30;;
14205;SDS011;7186;48.800;9.216;2023-02-08T10:03:43;16.27;;;10.20;;
14205;SDS011;7186;48.800;9.216;2023-02-08T10:06:10;26.67;;;15.33;;
14205;SDS011;7186;48.800;9.216;2023-02-08T10:08:36;17.80;;;10.70;;
14205;SDS011;7186;48.800;9.216;2023-02-08T10:11:08;18.20;;;10.77;;
14205;SDS011;7186;48.800;9.216;2023-02-08T10:13:43;14.83;;;10.43;;
14205;SDS011;7186;48.800;9.216;2023-02-08T10:19:05;16.00;;;10.33;;
14205;SDS011;7186;48.800;9.216;2023-02-08T10:21:43;16.93;;;10.63;;
14205;SDS011;7186;48.800;9.216;2023-02-08T10:24:18;14.33;;;10.23;;
14205;SDS011;7186;48.800;9.216;2023-02-08T10:26:48;18.23;;;11.07;;
14205;SDS011;7186;48.800;9.216;2023-02-08T10:32:14;18.50;;;11.67;;
14205;SDS011;7186;48.800;9.216;2023-02-08T10:34:44;17.83;;;12.00;;
14205;SDS011;7186;48.800;9.216;2023-02-08T10:37:14;16.77;;;10.97;;
14205;SDS011;7186;48.800;9.216;2023-02-08T10:39:40;16.50;;;11.30;;
14205;SDS011;7186;48.800;9.216;2023-02-08T10:42:09;16.10;;;10.67;;
14205;SDS011;7186;48.800;9.216;2023-02-08T10:44:43;18.83;;;11.00;;
14205;SDS011;7186;48.800;9.216;2023-02-08T10:52:39;17.60;;;11.47;;
14205;SDS011;7186;48.800;9.216;2023-02-08T10:55:11;15.83;;;11.90;;
14205;SDS011;7186;48.800;9.216;2023-02-08T10:57:37;17.40;;;11.83;;
14205;SDS011;7186;48.800;9.216;2023-02-08T11:02:31;14.30;;;10.03;;
14205;SDS011;7186;48.800;9.216;2023-02-08T11:05:19;14.97;;;10.97;;
14205;SDS011;7186;48.800;9.216;2023-02-08T11:07:45;13.93;;;10.70;;
14205;SDS011;7186;48.800;9.216;2023-02-08T11:10:23;14.37;;;10.27;;
14205;SDS011;7186;48.800;9.216;2023-02-08T11:12:58;16.93;;;11.70;;
14205;SDS011;7186;48.800;9.216;2023-02-08T11:15:46;15.57;;;10.10;;
14205;SDS011;7186;48.800;9.216;2023-02-08T11:18:16;12.30;;;8.93;;
14205;SDS011;7186;48.800;9.216;2023-02-08T11:20:43;15.77;;;9.97;;
14205;SDS011;7186;48.800;9.216;2023-02-08T11:26:23;12.27;;;9.20;;
14205;SDS011;7186;48.800;9.216;2023-02-08T11:28:59;11.60;;;8.63;;
14205;SDS011;7186;48.800;9.216;2023-02-08T11:31:24;13.30;;;8.47;;
14205;SDS011;7186;48.800;9.216;2023-02-08T11:34:23;15.37;;;9.80;;
14205;SDS011;7186;48.800;9.216;2023-02-08T11:36:45;13.10;;;8.97;;
14205;SDS011;7186;48.800;9.216;2023-02-08T11:39:14;13.57;;;9.33;;
14205;SDS011;7186;48.800;9.216;2023-02-08T11:41:47;13.23;;;8.73;;
14205;SDS011;7186;48.800;9.216;2023-02-08T11:44:16;13.63;;;9.47;;
14205;SDS011;7186;48.800;9.216;2023-02-08T11:46:44;11.53;;;8.50;;
14205;SDS011;7186;48.800;9.216;2023-02-08T11:49:19;16.93;;;8.27;;
14205;SDS011;7186;48.800;9.216;2023-02-08T11:51:45;13.70;;;8.70;;
14205;SDS011;7186;48.800;9.216;2023-02-08T11:54:30;13.07;;;8.83;;
14205;SDS011;7186;48.800;9.216;2023-02-08T11:57:03;14.00;;;8.80;;
14205;SDS011;7186;48.800;9.216;2023-02-08T11:59:33;12.90;;;8.57;;
14205;SDS011;7186;48.800;9.216;2023-02-08T12:01:58;12.10;;;7.93;;
14205;SDS011;7186;48.800;9.216;2023-02-08T12:04:42;12.63;;;7.20;;
14205;SDS011;7186;48.800;9.216;2023-02-08T12:07:16;10.87;;;7.90;;
14205;SDS011;7186;48.800;9.216;2023-02-08T12:20:31;14.67;;;8.70;;
14205;SDS011;7186;48.800;9.216;2023-02-08T12:28:02;12.93;;;6.93;;
14205;SDS011;7186;48.800;9.216;2023-02-08T12:30:33;8.80;;;6.80;;
14205;SDS011;7186;48.800;9.216;2023-02-08T12:41:17;11.40;;;7.40;;
14205;SDS011;7186;48.800;9.216;2023-02-08T12:44:01;12.77;;;8.00;;
14205;SDS011;7186;48.800;9.216;2023-02-08T12:53:59;9.60;;;6.00;;
14205;SDS011;7186;48.800;9.216;2023-02-08T12:56:29;7.60;;;5.60;;
14205;SDS011;7186;48.800;9.216;2023-02-08T12:58:56;8.73;;;5.97;;
14205;SDS011;7186;48.800;9.216;2023-02-08T13:01:28;10.50;;;6.30;;
14205;SDS011;7186;48.800;9.216;2023-02-08T13:04:11;8.07;;;5.70;;
14205;SDS011;7186;48.800;9.216;2023-02-08T13:06:41;16.60;;;9.97;;
14205;SDS011;7186;48.800;9.216;2023-02-08T13:09:11;12.83;;;6.37;;
14205;SDS011;7186;48.800;9.216;2023-02-08T13:11:40;14.17;;;8.07;;
14205;SDS011;7186;48.800;9.216;2023-02-08T13:16:33;11.50;;;7.07;;
14205;SDS011;7186;48.800;9.216;2023-02-08T13:21:28;11.80;;;6.60;;
14205;SDS011;7186;48.800;9.216;2023-02-08T13:23:54;12.27;;;6.60;;
14205;SDS011;7186;48.800;9.216;2023-02-08T13:26:21;10.53;;;6.10;;
14205;SDS011;7186;48.800;9.216;2023-02-08T13:28:51;9.40;;;5.47;;
14205;SDS011;7186;48.800;9.216;2023-02-08T13:31:19;14.50;;;6.80;;
14205;SDS011;7186;48.800;9.216;2023-02-08T13:33:47;16.23;;;7.63;;
14205;SDS011;7186;48.800;9.216;2023-02-08T13:36:20;12.07;;;5.87;;
14205;SDS011;7186;48.800;9.216;2023-02-08T13:39:32;12.23;;;5.87;;
14205;SDS011;7186;48.800;9.216;2023-02-08T13:44:58;12.60;;;6.40;;
14205;SDS011;7186;48.800;9.216;2023-02-08T13:47:28;14.67;;;6.37;;
14205;SDS011;7186;48.800;9.216;2023-02-08T13:49:56;9.20;;;5.57;;
14205;SDS011;7186;48.800;9.216;2023-02-08T13:57:53;9.13;;;5.23;;
14205;SDS011;7186;48.800;9.216;2023-02-08T14:02:56;10.30;;;4.70;;
14205;SDS011;7186;48.800;9.216;2023-02-08T14:05:50;7.23;;;5.00;;
14205;SDS011;7186;48.800;9.216;2023-02-08T14:14:00;7.97;;;4.73;;
14205;SDS011;7186;48.800;9.216;2023-02-08T14:16:44;8.97;;;5.47;;
14205;SDS011;7186;48.800;9.216;2023-02-08T14:19:39;9.83;;;5.50;;
14205;SDS011;7186;48.800;9.216;2023-02-08T14:24:33;11.37;;;5.70;;
14205;SDS011;7186;48.800;9.216;2023-02-08T14:27:08;8.60;;;5.07;;
14205;SDS011;7186;48.800;9.216;2023-02-08T14:29:58;9.83;;;5.60;;
14205;SDS011;7186;48.800;9.216;2023-02-08T14:32:24;8.60;;;5.13;;
14205;SDS011;7186;48.800;9.216;2023-02-08T14:34:57;9.80;;;5.77;;
14205;SDS011;7186;48.800;9.216;2023-02-08T14:37:48;9.63;;;6.17;;
14205;SDS011;7186;48.800;9.216;2023-02-08T14:45:29;9.73;;;5.83;;
14205;SDS011;7186;48.800;9.216;2023-02-08T14:50:32;10.33;;;5.60;;
14205;SDS011;7186;48.800;9.216;2023-02-08T14:55:40;11.77;;;6.53;;
14205;SDS011;7186;48.800;9.216;2023-02-08T14:58:41;11.60;;;6.30;;
14205;SDS011;7186;48.800;9.216;2023-02-08T15:01:53;10.27;;;6.40;;
14205;SDS011;7186;48.800;9.216;2023-02-08T15:03:58;14.27;;;8.63;;
14205;SDS011;7186;48.800;9.216;2023-02-08T15:08:52;10.17;;;6.67;;
14205;SDS011;7186;48.800;9.216;2023-02-08T15:11:19;11.23;;;7.03;;
14205;SDS011;7186;48.800;9.216;2023-02-08T15:13:47;12.73;;;7.20;;
14205;SDS011;7186;48.800;9.216;2023-02-08T15:16:13;16.37;;;7.33;;
14205;SDS011;7186;48.800;9.216;2023-02-08T15:18:38;13.27;;;6.47;;
14205;SDS011;7186;48.800;9.216;2023-02-08T15:21:06;12.13;;;6.43;;
14205;SDS011;7186;48.800;9.216;2023-02-08T15:23:32;14.07;;;6.40;;
14205;SDS011;7186;48.800;9.216;2023-02-08T15:28:23;10.07;;;5.80;;
14205;SDS011;7186;48.800;9.216;2023-02-08T15:30:59;10.43;;;6.00;;
14205;SDS011;7186;48.800;9.216;2023-02-08T15:33:26;12.97;;;6.20;;
14205;SDS011;7186;48.800;9.216;2023-02-08T15:36:04;10.50;;;6.27;;
14205;SDS011;7186;48.800;9.216;2023-02-08T15:38:30;9.07;;;5.73;;
14205;SDS011;7186;48.800;9.216;2023-02-08T15:40:59;11.00;;;6.53;;
14205;SDS011;7186;48.800;9.216;2023-02-08T15:43:25;11.63;;;6.60;;
14205;SDS011;7186;48.800;9.216;2023-02-08T15:46:03;18.53;;;9.60;;
14205;SDS011;7186;48.800;9.216;2023-02-08T15:48:29;19.63;;;7.77;;
14205;SDS011;7186;48.800;9.216;2023-02-08T15:50:56;14.77;;;7.83;;
14205;SDS011;7186;48.800;9.216;2023-02-08T15:53:21;12.90;;;6.77;;
14205;SDS011;7186;48.800;9.216;2023-02-08T15:55:48;13.53;;;7.13;;
14205;SDS011;7186;48.800;9.216;2023-02-08T15:58:32;9.80;;;5.80;;
14205;SDS011;7186;48.800;9.216;2023-02-08T16:01:00;12.13;;;6.40;;
14205;SDS011;7186;48.800;9.216;2023-02-08T16:03:26;12.07;;;6.53;;
14205;SDS011;7186;48.800;9.216;2023-02-08T16:05:56;11.17;;;6.63;;
14205;SDS011;7186;48.800;9.216;2023-02-08T16:08:23;14.17;;;8.10;;
14205;SDS011;7186;48.800;9.216;2023-02-08T16:10:51;26.10;;;11.63;;
14205;SDS011;7186;48.800;9.216;2023-02-08T16:13:26;22.83;;;11.80;;
14205;SDS011;7186;48.800;9.216;2023-02-08T16:18:42;14.57;;;7.30;;
14205;SDS011;7186;48.800;9.216;2023-02-08T16:23:51;20.27;;;10.03;;
14205;SDS011;7186;48.800;9.216;2023-02-08T16:26:24;27.03;;;12.20;;
14205;SDS011;7186;48.800;9.216;2023-02-08T16:28:50;23.53;;;10.10;;
14205;SDS011;7186;48.800;9.216;2023-02-08T16:31:18;15.70;;;7.63;;
14205;SDS011;7186;48.800;9.216;2023-02-08T16:33:43;13.03;;;7.13;;
14205;SDS011;7186;48.800;9.216;2023-02-08T16:36:17;10.10;;;6.17;;
14205;SDS011;7186;48.800;9.216;2023-02-08T16:38:47;14.37;;;8.17;;
14205;SDS011;7186;48.800;9.216;2023-02-08T16:41:54;22.13;;;11.17;;
14205;SDS011;7186;48.800;9.216;2023-02-08T16:44:17;21.10;;;10.87;;
14205;SDS011;7186;48.800;9.216;2023-02-08T16:46:46;23.77;;;10.20;;
14205;SDS011;7186;48.800;9.216;2023-02-08T16:49:11;17.53;;;9.73;;
14205;SDS011;7186;48.800;9.216;2023-02-08T16:51:36;14.83;;;7.87;;
14205;SDS011;7186;48.800;9.216;2023-02-08T16:54:09;13.63;;;7.07;;
14205;SDS011;7186;48.800;9.216;2023-02-08T16:56:36;25.13;;;10.53;;
14205;SDS011;7186;48.800;9.216;2023-02-08T16:59:03;18.23;;;10.33;;
14205;SDS011;7186;48.800;9.216;2023-02-08T17:01:28;27.50;;;12.90;;
14205;SDS011;7186;48.800;9.216;2023-02-08T17:03:53;22.87;;;11.77;;
14205;SDS011;7186;48.800;9.216;2023-02-08T17:06:29;22.70;;;11.73;;
14205;SDS011;7186;48.800;9.216;2023-02-08T17:08:55;23.57;;;12.03;;
14205;SDS011;7186;48.800;9.216;2023-02-08T17:11:20;26.27;;;12.47;;
14205;SDS011;7186;48.800;9.216;2023-02-08T17:13:46;22.37;;;10.97;;
14205;SDS011;7186;48.800;9.216;2023-02-08T17:16:14;15.20;;;8.20;;
14205;SDS011;7186;48.800;9.216;2023-02-08T17:18:42;15.80;;;8.63;;
14205;SDS011;7186;48.800;9.216;2023-02-08T17:21:07;21.53;;;9.50;;
14205;SDS011;7186;48.800;9.216;2023-02-08T17:23:33;18.93;;;10.57;;
14205;SDS011;7186;48.800;9.216;2023-02-08T17:25:58;16.63;;;8.77;;